Time;durP1;ratioP1;P1;durP2;ratioP2;P2;SDS_P1;SDS_P2;PMS_P1;PMS_P2;Temp;Humidity;BMP_temperature;BMP_pressure;BME280_temperature;BME280_humidity;BME280_pressure;Samples;Min_cycle;Max_cycle;Signal;HPM_P1;HPM_P2
2023/01/31 00:01:27;;;;;;;;;43.50;31.75;;;;;;;;5105148;27;61974;-76
2023/01/31 00:03:53;;;;;;;;;46.75;29.75;;;;;;;;5106599;27;61698;-76
2023/01/31 00:06:32;;;;;;;;;31.75;28.00;;;;;;;;5104171;27;63891;-76
2023/01/31 00:08:59;;;;;;;;;41.75;33.50;;;;;;;;5104355;27;61765;-76
2023/01/31 00:11:25;;;;;;;;;37.50;30.25;;;;;;;;5104422;27;61786;-75
2023/01/31 00:13:51;;;;;;;;;45.50;32.00;;;;;;;;5106271;27;62106;-76
2023/01/31 00:16:17;;;;;;;;;36.75;31.50;;;;;;;;5086246;27;64659;-76
2023/01/31 00:18:42;;;;;;;;;31.00;25.50;;;;;;;;5105946;27;61723;-76
2023/01/31 00:21:18;;;;;;;;;36.50;30.00;;;;;;;;5087474;27;61950;-76
2023/01/31 00:23:43;;;;;;;;;40.75;35.75;;;;;;;;5105907;27;62026;-76
2023/01/31 00:26:10;;;;;;;;;42.25;31.00;;;;;;;;5105342;27;61855;-76
2023/01/31 00:28:36;;;;;;;;;36.75;31.75;;;;;;;;5105948;27;61833;-76
2023/01/31 00:31:01;;;;;;;;;43.50;30.25;;;;;;;;5105368;27;61864;-75
2023/01/31 00:33:26;;;;;;;;;30.50;26.25;;;;;;;;5087613;27;62239;-76
2023/01/31 00:35:51;;;;;;;;;36.50;31.75;;;;;;;;5105133;27;61845;-76
2023/01/31 00:38:17;;;;;;;;;42.00;33.25;;;;;;;;5098210;27;61929;-76
2023/01/31 00:40:50;;;;;;;;;42.25;34.75;;;;;;;;5084889;28;62143;-76
2023/01/31 00:43:15;;;;;;;;;35.75;34.00;;;;;;;;5085573;28;61855;-75
2023/01/31 00:45:40;;;;;;;;;50.75;34.25;;;;;;;;5083906;28;62593;-76
2023/01/31 00:48:05;;;;;;;;;44.25;35.00;;;;;;;;5078281;27;61863;-76
2023/01/31 00:50:31;;;;;;;;;24.00;17.25;;;;;;;;5105189;27;61778;-76
2023/01/31 00:52:56;;;;;;;;;34.00;34.00;;;;;;;;5105712;27;61785;-76
2023/01/31 00:55:21;;;;;;;;;37.75;30.25;;;;;;;;5086583;27;64439;-75
2023/01/31 00:57:46;;;;;;;;;44.00;35.75;;;;;;;;5105099;27;61754;-76
2023/01/31 01:00:12;;;;;;;;;48.50;39.00;;;;;;;;5104895;27;61777;-75
2023/01/31 01:02:37;;;;;;;;;45.75;39.50;;;;;;;;5104985;27;62114;-75
2023/01/31 01:05:02;;;;;;;;;61.25;47.00;;;;;;;;5103545;27;61857;-76
2023/01/31 01:07:28;;;;;;;;;62.25;46.50;;;;;;;;5086754;27;62007;-75
2023/01/31 01:09:53;;;;;;;;;61.00;46.25;;;;;;;;5104753;27;61706;-76
2023/01/31 01:12:18;;;;;;;;;57.25;43.75;;;;;;;;5104899;27;61760;-76
2023/01/31 01:14:44;;;;;;;;;63.25;42.75;;;;;;;;5103965;27;61797;-76
2023/01/31 01:17:09;;;;;;;;;48.50;41.25;;;;;;;;5104792;27;62037;-76
2023/01/31 01:19:34;;;;;;;;;60.50;39.50;;;;;;;;5104963;27;61790;-76
2023/01/31 01:22:00;;;;;;;;;57.25;39.50;;;;;;;;5105148;27;61782;-75
2023/01/31 01:24:26;;;;;;;;;50.00;39.75;;;;;;;;5086084;27;64132;-76
2023/01/31 01:26:52;;;;;;;;;49.50;38.25;;;;;;;;5104351;27;61780;-76
2023/01/31 01:29:17;;;;;;;;;48.25;34.75;;;;;;;;5104837;27;61932;-76
2023/01/31 01:31:42;;;;;;;;;44.00;37.50;;;;;;;;5104276;27;61751;-76
2023/01/31 01:34:11;;;;;;;;;39.50;31.00;;;;;;;;5085682;27;63475;-76
2023/01/31 01:36:36;;;;;;;;;47.50;36.25;;;;;;;;5085971;27;61800;-76
2023/01/31 01:39:03;;;;;;;;;35.50;27.00;;;;;;;;5072442;28;61986;-76
2023/01/31 01:41:32;;;;;;;;;43.00;33.75;;;;;;;;5084475;28;61747;-75
2023/01/31 01:43:58;;;;;;;;;39.25;32.00;;;;;;;;5083218;28;61759;-76
2023/01/31 01:46:39;;;;;;;;;41.50;34.50;;;;;;;;5065454;28;61948;-76
2023/01/31 01:49:13;;;;;;;;;38.25;31.75;;;;;;;;5084250;28;61730;-76
2023/01/31 01:51:39;;;;;;;;;32.50;30.50;;;;;;;;5084128;28;62158;-76
2023/01/31 01:54:09;;;;;;;;;36.50;29.75;;;;;;;;5065254;28;61870;-75
2023/01/31 01:56:36;;;;;;;;;27.50;26.00;;;;;;;;5084139;28;61774;-76
2023/01/31 01:59:01;;;;;;;;;32.75;28.00;;;;;;;;5065181;28;61831;-76
2023/01/31 02:01:29;;;;;;;;;37.75;28.25;;;;;;;;5083548;28;61784;-76
2023/01/31 02:03:54;;;;;;;;;41.00;30.00;;;;;;;;5083101;28;61842;-76
2023/01/31 02:06:20;;;;;;;;;32.25;28.00;;;;;;;;5083752;28;61903;-75
2023/01/31 02:08:45;;;;;;;;;32.25;22.25;;;;;;;;5064938;28;61754;-76
2023/01/31 02:11:20;;;;;;;;;35.50;26.00;;;;;;;;5083958;28;61744;-76
2023/01/31 02:13:46;;;;;;;;;34.50;28.75;;;;;;;;5100669;27;62691;-75
2023/01/31 02:16:12;;;;;;;;;36.50;26.00;;;;;;;;5101964;27;61979;-76
2023/01/31 02:18:37;;;;;;;;;34.25;28.00;;;;;;;;5104258;27;61702;-76
2023/01/31 02:21:22;;;;;;;;;36.25;29.00;;;;;;;;5103964;27;62079;-76
2023/01/31 02:24:00;;;;;;;;;39.25;26.75;;;;;;;;5102977;27;62828;-75
2023/01/31 02:26:43;;;;;;;;;30.25;24.00;;;;;;;;5103610;27;61869;-76
2023/01/31 02:29:29;;;;;;;;;27.25;24.50;;;;;;;;5102677;27;61742;-76
2023/01/31 02:32:13;;;;;;;;;30.25;27.75;;;;;;;;5060053;28;62190;-76
2023/01/31 02:34:47;;;;;;;;;29.00;24.00;;;;;;;;5043018;28;63592;-75
2023/01/31 02:37:18;;;;;;;;;34.25;26.25;;;;;;;;5043238;28;61979;-76
2023/01/31 02:40:01;;;;;;;;;26.75;23.25;;;;;;;;5042598;28;61836;-75
2023/01/31 02:42:26;;;;;;;;;37.00;28.25;;;;;;;;5043190;28;61833;-76
2023/01/31 02:45:00;;;;;;;;;35.50;26.00;;;;;;;;5042466;28;63730;-76
2023/01/31 02:47:30;;;;;;;;;26.00;26.00;;;;;;;;5042903;28;62003;-76
2023/01/31 02:49:59;;;;;;;;;33.75;26.25;;;;;;;;5060228;28;61873;-76
2023/01/31 02:52:31;;;;;;;;;28.75;25.00;;;;;;;;5043434;28;61897;-76
2023/01/31 02:57:51;;;;;;;;;34.25;26.00;;;;;;;;5060053;28;61992;-76
2023/01/31 03:00:17;;;;;;;;;27.75;24.25;;;;;;;;5043478;28;62238;-75
2023/01/31 03:02:43;;;;;;;;;26.75;21.75;;;;;;;;5059873;28;62206;-76
2023/01/31 03:05:13;;;;;;;;;29.00;27.25;;;;;;;;5059229;28;62009;-75
2023/01/31 03:07:38;;;;;;;;;28.75;24.00;;;;;;;;5042619;28;62109;-76
2023/01/31 03:10:19;;;;;;;;;27.25;20.75;;;;;;;;5098717;27;61759;-76
2023/01/31 03:12:47;;;;;;;;;32.75;25.00;;;;;;;;5103193;27;61883;-76
2023/01/31 03:15:16;;;;;;;;;28.50;27.00;;;;;;;;5101073;27;61838;-76
2023/01/31 03:18:20;;;;;;;;;34.00;24.75;;;;;;;;5101586;27;61847;-76
2023/01/31 03:20:54;;;;;;;;;28.50;22.50;;;;;;;;5080236;28;61979;-76
2023/01/31 03:23:21;;;;;;;;;30.25;24.00;;;;;;;;5097333;27;62194;-76
2023/01/31 03:25:48;;;;;;;;;27.75;23.00;;;;;;;;5079036;28;61853;-76
2023/01/31 03:28:16;;;;;;;;;35.50;26.25;;;;;;;;5096322;27;61870;-75
2023/01/31 03:30:47;;;;;;;;;26.75;21.50;;;;;;;;5080177;28;61991;-76
2023/01/31 03:33:15;;;;;;;;;34.00;23.75;;;;;;;;5079933;28;62052;-75
2023/01/31 03:35:45;;;;;;;;;32.50;23.50;;;;;;;;5062153;28;64080;-76
2023/01/31 03:38:15;;;;;;;;;24.25;23.00;;;;;;;;5079062;28;61983;-76
2023/01/31 03:40:45;;;;;;;;;29.25;21.25;;;;;;;;5079754;28;62054;-76
2023/01/31 03:43:17;;;;;;;;;25.00;22.25;;;;;;;;5079857;28;61818;-76
2023/01/31 03:45:50;;;;;;;;;12.50;10.00;;;;;;;;5078855;28;61939;-76
2023/01/31 03:48:17;;;;;;;;;30.50;22.75;;;;;;;;5079533;28;62347;-76
2023/01/31 03:50:56;;;;;;;;;23.25;21.75;;;;;;;;5083779;27;61807;-76
2023/01/31 03:53:29;;;;;;;;;22.25;19.50;;;;;;;;5102415;27;61806;-75
2023/01/31 03:55:59;;;;;;;;;19.00;18.25;;;;;;;;5101866;27;61915;-76
2023/01/31 03:58:27;;;;;;;;;24.00;17.25;;;;;;;;5102386;27;61690;-76
2023/01/31 04:00:53;;;;;;;;;21.50;20.50;;;;;;;;5102554;27;61754;-75
2023/01/31 04:03:19;;;;;;;;;22.75;21.00;;;;;;;;5102645;27;61804;-76
2023/01/31 04:05:45;;;;;;;;;25.50;21.75;;;;;;;;5100443;27;63875;-76
2023/01/31 04:08:10;;;;;;;;;29.25;19.00;;;;;;;;5101481;27;62027;-76
2023/01/31 04:10:36;;;;;;;;;25.00;19.25;;;;;;;;5102501;27;61977;-76
2023/01/31 04:13:01;;;;;;;;;27.75;20.75;;;;;;;;5101841;27;62060;-75
2023/01/31 04:15:27;;;;;;;;;24.75;20.75;;;;;;;;5100575;27;63627;-76
2023/01/31 04:17:52;;;;;;;;;25.00;20.00;;;;;;;;5102026;27;61884;-75
2023/01/31 04:20:17;;;;;;;;;27.75;21.25;;;;;;;;5102482;27;62043;-75
2023/01/31 04:22:42;;;;;;;;;18.25;18.25;;;;;;;;5101867;27;61960;-76
2023/01/31 04:25:08;;;;;;;;;19.00;14.25;;;;;;;;5101269;27;63015;-76
2023/01/31 04:27:33;;;;;;;;;17.50;16.00;;;;;;;;5102417;27;61928;-76
2023/01/31 04:29:59;;;;;;;;;21.75;18.50;;;;;;;;5102295;27;61930;-76
2023/01/31 04:32:24;;;;;;;;;23.75;15.00;;;;;;;;5102054;27;61710;-75
2023/01/31 04:34:49;;;;;;;;;23.25;19.50;;;;;;;;5101195;27;61865;-76
2023/01/31 04:37:14;;;;;;;;;34.50;23.00;;;;;;;;5101568;27;62013;-76
2023/01/31 04:39:40;;;;;;;;;24.25;19.25;;;;;;;;5101037;27;62358;-75
2023/01/31 04:42:05;;;;;;;;;25.00;18.50;;;;;;;;5105252;27;61875;-76
2023/01/31 04:44:30;;;;;;;;;24.25;15.75;;;;;;;;5104794;27;62666;-76
2023/01/31 04:46:56;;;;;;;;;21.00;15.50;;;;;;;;5105061;27;61950;-76
2023/01/31 04:49:21;;;;;;;;;26.25;16.75;;;;;;;;5105609;27;61679;-75
2023/01/31 04:51:46;;;;;;;;;11.75;10.00;;;;;;;;5103865;27;61744;-76
2023/01/31 04:54:11;;;;;;;;;16.75;12.75;;;;;;;;5103058;27;63499;-76
2023/01/31 04:56:37;;;;;;;;;16.25;12.00;;;;;;;;5105327;27;62003;-76
2023/01/31 04:59:02;;;;;;;;;12.75;10.25;;;;;;;;5103989;27;62145;-76
2023/01/31 05:01:28;;;;;;;;;12.75;9.50;;;;;;;;5105299;27;62100;-75
2023/01/31 05:03:53;;;;;;;;;10.75;8.25;;;;;;;;5103502;27;64524;-76
2023/01/31 05:06:18;;;;;;;;;12.50;10.75;;;;;;;;5104452;27;61819;-76
2023/01/31 05:08:43;;;;;;;;;17.00;10.75;;;;;;;;5103304;27;61901;-75
2023/01/31 05:11:09;;;;;;;;;16.00;10.75;;;;;;;;5105290;27;61834;-75
2023/01/31 05:13:38;;;;;;;;;5.00;5.00;;;;;;;;5104282;27;61875;-76
2023/01/31 05:16:07;;;;;;;;;16.50;11.75;;;;;;;;5104826;27;61915;-76
2023/01/31 05:18:34;;;;;;;;;8.50;5.75;;;;;;;;5105214;27;61739;-76
2023/01/31 05:20:59;;;;;;;;;12.75;10.00;;;;;;;;5103233;27;61849;-76
2023/01/31 05:23:25;;;;;;;;;8.25;8.00;;;;;;;;5104337;27;62865;-76
2023/01/31 05:25:50;;;;;;;;;8.00;6.00;;;;;;;;5105143;27;62814;-75
2023/01/31 05:28:15;;;;;;;;;16.50;11.50;;;;;;;;5103116;27;62321;-76
2023/01/31 05:30:41;;;;;;;;;9.75;8.75;;;;;;;;5105212;27;62666;-75
2023/01/31 05:33:06;;;;;;;;;9.25;6.50;;;;;;;;5103781;27;62108;-76
2023/01/31 05:35:31;;;;;;;;;7.00;5.00;;;;;;;;5104113;27;61824;-76
2023/01/31 05:37:57;;;;;;;;;11.50;6.50;;;;;;;;5102800;27;62258;-76
2023/01/31 05:40:23;;;;;;;;;12.75;8.00;;;;;;;;5104615;27;62148;-76
2023/01/31 05:42:56;;;;;;;;;11.50;8.25;;;;;;;;5102149;27;63531;-76
2023/01/31 05:45:22;;;;;;;;;12.00;8.00;;;;;;;;5104031;27;61698;-75
2023/01/31 05:47:47;;;;;;;;;13.50;11.00;;;;;;;;5104488;27;61902;-75
2023/01/31 05:50:12;;;;;;;;;10.50;10.00;;;;;;;;5104296;27;62005;-76
2023/01/31 05:52:37;;;;;;;;;12.00;9.00;;;;;;;;5103454;27;62753;-76
2023/01/31 05:55:03;;;;;;;;;8.00;8.00;;;;;;;;5104284;27;61794;-76
2023/01/31 05:57:28;;;;;;;;;10.25;7.00;;;;;;;;5104524;27;61680;-76
2023/01/31 05:59:54;;;;;;;;;9.50;9.50;;;;;;;;5103505;27;61731;-76
2023/01/31 06:02:19;;;;;;;;;15.25;8.50;;;;;;;;5101994;27;63845;-76
2023/01/31 06:04:44;;;;;;;;;11.00;8.00;;;;;;;;5102529;27;61940;-76
2023/01/31 06:07:09;;;;;;;;;10.00;9.00;;;;;;;;5104171;27;61904;-76
2023/01/31 06:09:37;;;;;;;;;10.75;7.50;;;;;;;;5102568;27;62193;-76
2023/01/31 06:12:03;;;;;;;;;8.75;6.50;;;;;;;;5102168;27;62695;-76
2023/01/31 06:14:28;;;;;;;;;9.00;7.00;;;;;;;;5103899;27;61791;-78
2023/01/31 06:16:53;;;;;;;;;13.25;7.75;;;;;;;;5104003;27;61817;-77
2023/01/31 06:19:24;;;;;;;;;10.00;7.25;;;;;;;;5105247;27;61790;-74
2023/01/31 06:21:49;;;;;;;;;8.00;7.50;;;;;;;;5103339;27;61687;-81
2023/01/31 06:24:14;;;;;;;;;12.00;8.50;;;;;;;;5102339;27;61920;-76
2023/01/31 06:26:39;;;;;;;;;10.50;6.50;;;;;;;;5103048;27;61787;-75
2023/01/31 06:29:05;;;;;;;;;6.75;6.25;;;;;;;;5104412;27;61783;-76
2023/01/31 06:31:30;;;;;;;;;6.25;5.50;;;;;;;;5101253;27;64022;-76
2023/01/31 06:33:55;;;;;;;;;12.75;8.00;;;;;;;;5103893;27;62095;-76
2023/01/31 06:36:20;;;;;;;;;8.50;5.00;;;;;;;;5103919;27;61794;-76
2023/01/31 06:38:49;;;;;;;;;10.00;8.00;;;;;;;;5103642;27;61808;-77
2023/01/31 06:41:15;;;;;;;;;9.25;4.75;;;;;;;;5108681;27;61988;-78
2023/01/31 06:43:41;;;;;;;;;8.00;4.75;;;;;;;;5097647;27;62034;-78
2023/01/31 06:46:07;;;;;;;;;9.75;5.00;;;;;;;;5107918;27;61814;-77
2023/01/31 06:48:32;;;;;;;;;7.00;7.00;;;;;;;;5099215;27;61933;-77
2023/01/31 06:50:57;;;;;;;;;9.00;6.75;;;;;;;;5134703;27;63623;-77
2023/01/31 06:53:23;;;;;;;;;9.25;4.25;;;;;;;;5102660;27;61816;-76
2023/01/31 06:55:48;;;;;;;;;13.50;4.00;;;;;;;;5103020;27;61896;-76
2023/01/31 06:58:13;;;;;;;;;11.50;9.00;;;;;;;;5101850;27;62016;-75
2023/01/31 07:00:39;;;;;;;;;9.50;5.50;;;;;;;;5102631;27;62992;-76
2023/01/31 07:03:04;;;;;;;;;13.25;5.50;;;;;;;;5101159;27;61794;-75
2023/01/31 07:05:29;;;;;;;;;8.50;6.50;;;;;;;;5102855;27;61685;-76
2023/01/31 07:07:55;;;;;;;;;4.50;3.00;;;;;;;;5102513;27;61711;-76
2023/01/31 07:10:21;;;;;;;;;6.75;5.00;;;;;;;;5099986;27;63740;-76
2023/01/31 07:12:46;;;;;;;;;9.00;4.00;;;;;;;;5102820;27;61740;-76
2023/01/31 07:15:11;;;;;;;;;12.00;9.00;;;;;;;;5102634;27;61950;-76
2023/01/31 07:17:37;;;;;;;;;6.50;4.50;;;;;;;;5101792;27;61780;-76
2023/01/31 07:20:02;;;;;;;;;9.25;8.00;;;;;;;;5101209;27;63589;-76
2023/01/31 07:22:27;;;;;;;;;9.00;5.75;;;;;;;;5102762;27;61812;-76
2023/01/31 07:24:53;;;;;;;;;10.50;5.00;;;;;;;;5103087;27;61804;-76
2023/01/31 07:27:18;;;;;;;;;6.50;5.00;;;;;;;;5102108;27;62234;-75
2023/01/31 07:29:43;;;;;;;;;5.00;4.00;;;;;;;;5102710;27;61816;-76
2023/01/31 07:32:09;;;;;;;;;4.75;4.75;;;;;;;;5101009;27;61974;-71
2023/01/31 07:34:34;;;;;;;;;9.50;5.50;;;;;;;;5103016;27;61887;-74
2023/01/31 07:37:00;;;;;;;;;5.25;5.00;;;;;;;;5101890;27;62196;-73
2023/01/31 07:39:25;;;;;;;;;5.25;3.75;;;;;;;;5101785;27;61869;-74
2023/01/31 07:41:51;;;;;;;;;5.75;4.50;;;;;;;;5102993;27;61784;-73
2023/01/31 07:44:16;;;;;;;;;9.00;2.00;;;;;;;;5102958;27;61821;-73
2023/01/31 07:46:41;;;;;;;;;6.00;2.75;;;;;;;;5102371;27;62001;-73
2023/01/31 07:49:10;;;;;;;;;5.75;4.25;;;;;;;;5101596;27;62011;-73
2023/01/31 07:51:37;;;;;;;;;6.50;4.50;;;;;;;;5101086;27;61920;-73
2023/01/31 07:54:03;;;;;;;;;4.75;3.25;;;;;;;;5102600;27;61824;-73
2023/01/31 07:56:28;;;;;;;;;3.50;2.50;;;;;;;;5102419;27;61946;-74
2023/01/31 07:58:53;;;;;;;;;7.50;4.00;;;;;;;;5101585;27;62564;-74
2023/01/31 08:04:08;;;;;;;;;6.75;5.25;;;;;;;;5102773;27;61821;-73
2023/01/31 08:06:34;;;;;;;;;11.25;3.25;;;;;;;;5102896;27;61682;-76
2023/01/31 08:08:59;;;;;;;;;9.25;5.25;;;;;;;;5101706;27;61691;-73
2023/01/31 08:11:25;;;;;;;;;4.00;2.00;;;;;;;;5102672;27;61734;-73
2023/01/31 08:13:50;;;;;;;;;8.75;4.75;;;;;;;;5102507;27;62367;-73
2023/01/31 08:16:15;;;;;;;;;6.75;4.25;;;;;;;;5105257;27;61739;-75
2023/01/31 08:18:41;;;;;;;;;6.00;6.00;;;;;;;;5101183;27;63573;-73
2023/01/31 08:21:07;;;;;;;;;5.00;4.00;;;;;;;;5101237;27;61716;-74
2023/01/31 08:23:33;;;;;;;;;14.00;5.75;;;;;;;;5105744;27;61948;-74
2023/01/31 08:26:03;;;;;;;;;11.00;6.50;;;;;;;;5104969;27;62362;-74
2023/01/31 08:28:30;;;;;;;;;9.75;5.75;;;;;;;;5088027;27;63725;-74
2023/01/31 08:30:55;;;;;;;;;14.75;6.75;;;;;;;;5085155;27;61703;-74
2023/01/31 08:33:21;;;;;;;;;15.50;10.25;;;;;;;;5097207;27;61902;-74
2023/01/31 08:35:46;;;;;;;;;13.00;6.25;;;;;;;;5100049;27;61974;-74
2023/01/31 08:38:12;;;;;;;;;8.50;5.75;;;;;;;;5087983;27;62052;-74
2023/01/31 08:40:37;;;;;;;;;10.25;10.25;;;;;;;;5105548;27;61790;-74
2023/01/31 08:43:02;;;;;;;;;9.75;6.00;;;;;;;;5105684;27;62079;-74
2023/01/31 08:45:28;;;;;;;;;7.50;6.25;;;;;;;;5105489;27;61922;-74
2023/01/31 08:47:55;;;;;;;;;9.25;6.25;;;;;;;;5104548;27;61816;-73
2023/01/31 08:50:23;;;;;;;;;6.75;5.50;;;;;;;;5104896;27;61918;-74
2023/01/31 08:52:53;;;;;;;;;16.75;13.50;;;;;;;;5104883;27;61711;-73
2023/01/31 08:55:18;;;;;;;;;8.25;6.50;;;;;;;;5105767;27;62278;-73
2023/01/31 08:57:44;;;;;;;;;12.50;7.00;;;;;;;;5102372;27;63811;-73
2023/01/31 09:00:10;;;;;;;;;12.50;6.00;;;;;;;;5105302;27;62142;-73
2023/01/31 09:02:35;;;;;;;;;10.25;7.00;;;;;;;;5104382;27;61944;-73
2023/01/31 09:05:00;;;;;;;;;8.50;5.50;;;;;;;;5105259;27;61853;-72
2023/01/31 09:07:26;;;;;;;;;6.50;5.50;;;;;;;;5103469;27;63531;-73
2023/01/31 09:09:52;;;;;;;;;6.00;5.25;;;;;;;;5104382;27;62344;-73
2023/01/31 09:12:17;;;;;;;;;6.00;3.50;;;;;;;;5104286;27;61865;-73
2023/01/31 09:14:43;;;;;;;;;18.25;6.50;;;;;;;;5105142;27;62085;-73
2023/01/31 09:17:09;;;;;;;;;10.75;8.25;;;;;;;;5104149;27;61932;-72
2023/01/31 09:19:34;;;;;;;;;4.50;4.50;;;;;;;;5097865;27;61746;-73
2023/01/31 09:22:00;;;;;;;;;5.00;5.00;;;;;;;;5084337;28;62171;-73
2023/01/31 09:24:25;;;;;;;;;7.25;5.00;;;;;;;;5084423;28;62384;-73
2023/01/31 09:26:53;;;;;;;;;7.00;5.50;;;;;;;;5080831;28;61837;-73
2023/01/31 09:29:18;;;;;;;;;2.00;2.00;;;;;;;;5084722;28;61879;-73
2023/01/31 09:31:43;;;;;;;;;3.50;3.50;;;;;;;;5082672;28;61818;-73
2023/01/31 09:34:15;;;;;;;;;6.25;5.25;;;;;;;;5100091;27;61851;-73
2023/01/31 09:36:40;;;;;;;;;15.00;6.75;;;;;;;;5083840;28;61973;-73
2023/01/31 09:39:06;;;;;;;;;5.50;5.00;;;;;;;;5096808;27;62030;-73
2023/01/31 09:41:36;;;;;;;;;12.00;7.00;;;;;;;;5104531;27;61903;-73
2023/01/31 09:44:20;;;;;;;;;14.00;7.50;;;;;;;;5104505;27;61766;-73
2023/01/31 09:47:03;;;;;;;;;9.50;7.00;;;;;;;;5103889;27;61766;-73
2023/01/31 09:49:33;;;;;;;;;12.50;7.50;;;;;;;;5104558;27;62157;-73
2023/01/31 09:52:00;;;;;;;;;11.25;7.00;;;;;;;;5101060;27;61836;-73
2023/01/31 09:54:32;;;;;;;;;10.50;7.25;;;;;;;;5103800;27;62344;-73
2023/01/31 09:57:09;;;;;;;;;11.75;9.25;;;;;;;;5101910;27;64742;-73
2023/01/31 09:59:47;;;;;;;;;11.25;5.50;;;;;;;;5102560;27;61881;-72
2023/01/31 10:02:15;;;;;;;;;11.75;5.00;;;;;;;;5103938;27;61808;-73
2023/01/31 10:04:59;;;;;;;;;13.50;6.00;;;;;;;;5103128;27;61805;-73
2023/01/31 10:07:32;;;;;;;;;6.00;6.00;;;;;;;;5103776;27;61974;-72
2023/01/31 10:10:04;;;;;;;;;7.25;4.50;;;;;;;;5103550;27;62059;-72
2023/01/31 10:12:36;;;;;;;;;5.50;5.00;;;;;;;;5103146;27;61782;-72
2023/01/31 10:15:04;;;;;;;;;6.25;6.25;;;;;;;;5103617;27;61940;-72
2023/01/31 10:17:37;;;;;;;;;5.25;4.50;;;;;;;;5103201;27;62086;-72
2023/01/31 10:20:25;;;;;;;;;6.00;4.00;;;;;;;;5078249;28;61748;-73
2023/01/31 10:22:55;;;;;;;;;8.00;6.00;;;;;;;;5043892;28;61880;-72
2023/01/31 10:25:20;;;;;;;;;8.00;7.75;;;;;;;;5045089;28;62329;-72
2023/01/31 10:27:48;;;;;;;;;7.75;6.25;;;;;;;;5062787;28;61859;-72
2023/01/31 10:30:19;;;;;;;;;9.75;6.75;;;;;;;;5062477;28;61718;-72
2023/01/31 10:32:50;;;;;;;;;24.50;15.25;;;;;;;;5062781;28;62017;-72
2023/01/31 10:35:22;;;;;;;;;8.00;7.25;;;;;;;;5063235;28;61834;-73
2023/01/31 10:37:56;;;;;;;;;10.50;6.00;;;;;;;;5046070;28;63061;-75
2023/01/31 10:40:30;;;;;;;;;12.00;5.75;;;;;;;;5064255;28;61911;-73
2023/01/31 10:43:21;;;;;;;;;11.00;7.00;;;;;;;;5083214;28;61988;-73
2023/01/31 10:45:47;;;;;;;;;10.75;7.00;;;;;;;;5079321;28;61646;-73
2023/01/31 10:48:25;;;;;;;;;7.75;6.50;;;;;;;;5081824;27;62111;-73
2023/01/31 10:50:50;;;;;;;;;6.50;6.00;;;;;;;;5083298;28;61747;-73
2023/01/31 10:53:25;;;;;;;;;12.00;7.00;;;;;;;;5082936;28;61836;-73
2023/01/31 10:56:01;;;;;;;;;7.25;7.25;;;;;;;;5082730;28;61770;-72
2023/01/31 10:58:26;;;;;;;;;15.50;10.00;;;;;;;;5063452;28;64412;-73
2023/01/31 11:00:52;;;;;;;;;9.00;4.50;;;;;;;;5063543;28;61816;-73
2023/01/31 11:03:17;;;;;;;;;13.00;7.75;;;;;;;;5081073;28;61769;-73
2023/01/31 11:05:46;;;;;;;;;8.75;4.50;;;;;;;;5081843;28;61709;-73
2023/01/31 11:08:28;;;;;;;;;6.75;5.00;;;;;;;;5062257;28;64811;-73
2023/01/31 11:10:54;;;;;;;;;8.25;3.50;;;;;;;;5062305;28;62187;-73
2023/01/31 11:13:21;;;;;;;;;18.50;16.50;;;;;;;;5095857;27;61957;-73
2023/01/31 11:15:47;;;;;;;;;11.50;6.25;;;;;;;;5100993;27;62170;-72
2023/01/31 11:18:31;;;;;;;;;7.25;6.00;;;;;;;;5099623;27;63383;-73
2023/01/31 11:20:57;;;;;;;;;8.00;6.25;;;;;;;;5100068;27;61808;-73
2023/01/31 11:23:25;;;;;;;;;4.00;4.00;;;;;;;;5101442;27;61805;-74
2023/01/31 11:25:53;;;;;;;;;5.25;3.00;;;;;;;;5102029;27;61945;-73
2023/01/31 11:28:23;;;;;;;;;4.50;3.00;;;;;;;;5099690;27;63717;-73
2023/01/31 11:30:50;;;;;;;;;6.00;3.50;;;;;;;;5100495;27;61908;-73
2023/01/31 11:33:46;;;;;;;;;7.75;6.75;;;;;;;;5101259;27;61768;-73
2023/01/31 11:36:14;;;;;;;;;6.00;6.00;;;;;;;;5098766;27;61960;-73
2023/01/31 11:38:40;;;;;;;;;9.75;6.25;;;;;;;;5098838;27;61855;-73
2023/01/31 11:41:25;;;;;;;;;11.00;3.25;;;;;;;;5101585;27;62233;-73
2023/01/31 11:44:04;;;;;;;;;3.25;3.25;;;;;;;;5100506;27;61904;-73
2023/01/31 11:46:30;;;;;;;;;4.00;4.00;;;;;;;;5098890;27;62429;-74
2023/01/31 11:48:56;;;;;;;;;7.00;3.50;;;;;;;;5101226;27;62504;-72
2023/01/31 11:51:25;;;;;;;;;5.25;4.50;;;;;;;;5101131;27;61988;-73
2023/01/31 11:53:52;;;;;;;;;7.00;4.00;;;;;;;;5102446;27;61790;-74
2023/01/31 11:56:26;;;;;;;;;2.50;2.50;;;;;;;;5104222;27;61844;-74
2023/01/31 11:58:53;;;;;;;;;5.25;5.25;;;;;;;;5103213;27;63626;-74
2023/01/31 12:01:21;;;;;;;;;4.25;3.00;;;;;;;;5105913;27;61768;-74
2023/01/31 12:03:57;;;;;;;;;4.50;3.00;;;;;;;;5105543;27;61844;-75
2023/01/31 12:06:26;;;;;;;;;6.25;3.75;;;;;;;;5104482;27;62017;-74
2023/01/31 12:08:55;;;;;;;;;5.50;5.50;;;;;;;;5100179;27;63406;-74
2023/01/31 12:11:34;;;;;;;;;8.25;4.00;;;;;;;;5105531;27;61858;-74
2023/01/31 12:14:05;;;;;;;;;4.00;2.00;;;;;;;;5105269;27;61821;-73
2023/01/31 12:16:32;;;;;;;;;6.00;4.00;;;;;;;;5105175;27;61850;-72
2023/01/31 12:19:13;;;;;;;;;5.25;4.75;;;;;;;;5104504;27;61924;-72
2023/01/31 12:21:57;;;;;;;;;6.50;3.50;;;;;;;;5095813;27;62322;-74
2023/01/31 12:24:31;;;;;;;;;10.00;6.25;;;;;;;;5100557;27;61843;-72
2023/01/31 12:27:17;;;;;;;;;8.25;7.00;;;;;;;;5102170;27;61746;-72
2023/01/31 12:30:19;;;;;;;;;7.50;4.25;;;;;;;;5103297;27;61866;-71
2023/01/31 12:32:50;;;;;;;;;2.00;2.00;;;;;;;;5081689;28;62083;-73
2023/01/31 12:35:15;;;;;;;;;3.25;2.00;;;;;;;;5081639;28;62187;-73
2023/01/31 12:38:00;;;;;;;;;2.25;2.25;;;;;;;;5081622;28;61808;-73
2023/01/31 12:40:28;;;;;;;;;1.50;1.50;;;;;;;;5081178;28;61843;-72
2023/01/31 12:42:53;;;;;;;;;7.50;3.00;;;;;;;;5081817;28;62219;-72
2023/01/31 12:45:38;;;;;;;;;4.50;1.75;;;;;;;;5081875;28;61894;-73
2023/01/31 12:48:32;;;;;;;;;4.00;3.00;;;;;;;;5081564;28;61949;-72
2023/01/31 12:51:04;;;;;;;;;4.00;4.00;;;;;;;;4999971;28;64849;-72
2023/01/31 12:53:41;;;;;;;;;3.75;3.00;;;;;;;;5000030;28;62179;-73
2023/01/31 12:56:10;;;;;;;;;10.25;2.50;;;;;;;;5000250;28;61850;-72
2023/01/31 12:58:47;;;;;;;;;2.50;1.50;;;;;;;;5000732;28;63645;-72
2023/01/31 13:01:16;;;;;;;;;4.00;3.00;;;;;;;;4998807;28;62816;-73
2023/01/31 13:03:42;;;;;;;;;1.75;1.00;;;;;;;;4999761;28;61839;-72
2023/01/31 13:06:07;;;;;;;;;3.25;2.00;;;;;;;;5009476;28;61950;-72
2023/01/31 13:08:34;;;;;;;;;4.00;3.00;;;;;;;;5040695;28;62151;-75
2023/01/31 13:10:59;;;;;;;;;3.00;2.00;;;;;;;;5041224;28;61854;-73
2023/01/31 13:13:26;;;;;;;;;3.00;1.75;;;;;;;;5041022;28;61797;-72
2023/01/31 13:16:12;;;;;;;;;2.25;2.25;;;;;;;;5041625;28;61937;-72
2023/01/31 13:18:39;;;;;;;;;3.00;3.00;;;;;;;;5029335;28;62073;-73
2023/01/31 13:21:06;;;;;;;;;1.50;1.50;;;;;;;;5025585;28;61998;-72
2023/01/31 13:24:00;;;;;;;;;4.00;1.00;;;;;;;;5031439;28;61846;-72
2023/01/31 13:26:34;;;;;;;;;4.00;1.50;;;;;;;;5026344;27;62047;-72
2023/01/31 13:29:05;;;;;;;;;4.50;1.00;;;;;;;;5103539;27;61883;-72
2023/01/31 13:31:38;;;;;;;;;1.50;0.00;;;;;;;;5102391;27;61930;-73
2023/01/31 13:34:04;;;;;;;;;4.00;2.00;;;;;;;;5099457;27;61691;-72
2023/01/31 13:36:40;;;;;;;;;4.50;2.75;;;;;;;;5102412;27;61752;-73
2023/01/31 13:39:13;;;;;;;;;4.25;2.00;;;;;;;;5102835;27;62053;-73
2023/01/31 13:41:39;;;;;;;;;1.00;1.00;;;;;;;;5102312;27;63813;-73
2023/01/31 13:44:05;;;;;;;;;1.75;1.00;;;;;;;;5103031;27;61851;-74
2023/01/31 13:46:37;;;;;;;;;5.50;2.50;;;;;;;;5104549;27;61911;-74
2023/01/31 13:49:05;;;;;;;;;2.25;1.50;;;;;;;;5104086;27;61814;-74
2023/01/31 13:51:37;;;;;;;;;3.00;2.33;;;;;;;;5100795;27;62284;-73
2023/01/31 13:54:21;;;;;;;;;2.00;2.00;;;;;;;;5098492;27;61882;-73
2023/01/31 13:56:53;;;;;;;;;4.67;3.00;;;;;;;;5098992;27;62059;-74
2023/01/31 13:59:30;;;;;;;;;2.67;2.00;;;;;;;;5102284;27;61977;-75
2023/01/31 14:01:57;;;;;;;;;2.33;2.33;;;;;;;;5101434;27;61818;-73
2023/01/31 14:04:27;;;;;;;;;1.00;1.00;;;;;;;;5098955;27;61980;-73
2023/01/31 14:06:56;;;;;;;;;1.00;1.00;;;;;;;;5102242;27;62696;-73
2023/01/31 14:09:23;;;;;;;;;3.00;2.00;;;;;;;;5101646;27;62264;-73
2023/01/31 14:11:48;;;;;;;;;2.33;1.67;;;;;;;;5101122;27;62731;-73
2023/01/31 14:14:19;;;;;;;;;2.00;2.00;;;;;;;;5101969;27;61771;-76
2023/01/31 14:16:45;;;;;;;;;3.00;2.00;;;;;;;;5093753;27;61923;-74
2023/01/31 14:19:22;;;;;;;;;2.00;2.00;;;;;;;;5101266;27;62031;-75
2023/01/31 14:22:02;;;;;;;;;2.33;1.00;;;;;;;;5099123;27;63563;-74
2023/01/31 14:24:46;;;;;;;;;0.75;0.50;;;;;;;;5101105;27;61927;-74
2023/01/31 14:27:19;;;;;;;;;5.75;3.00;;;;;;;;5101081;27;61838;-72
2023/01/31 14:29:53;;;;;;;;;3.00;3.00;;;;;;;;5101221;27;61888;-74
2023/01/31 14:32:35;;;;;;;;;5.00;2.00;;;;;;;;5097080;27;63249;-74
2023/01/31 14:35:12;;;;;;;;;2.50;1.50;;;;;;;;5100345;27;61788;-74
2023/01/31 14:37:44;;;;;;;;;1.00;1.00;;;;;;;;5101438;27;62443;-74
2023/01/31 14:40:16;;;;;;;;;2.50;2.50;;;;;;;;5090335;27;62283;-74
2023/01/31 14:42:58;;;;;;;;;2.00;2.00;;;;;;;;5102396;27;61824;-73
2023/01/31 14:45:32;;;;;;;;;5.00;2.00;;;;;;;;5102661;27;61796;-73
2023/01/31 14:48:09;;;;;;;;;4.00;3.00;;;;;;;;5095692;27;62293;-74